sensor_id;sensor_type;location;lat;lon;timestamp;P1;durP1;ratioP1;P2;durP2;ratioP2
12232;SDS011;6179;51.748;8.728;2023-09-18T00:05:47;3.97;;;2.60;;
12232;SDS011;6179;51.748;8.728;2023-09-18T00:11:48;2.67;;;2.43;;
12232;SDS011;6179;51.748;8.728;2023-09-18T00:17:49;3.83;;;2.30;;
12232;SDS011;6179;51.748;8.728;2023-09-18T00:23:49;4.27;;;2.90;;
12232;SDS011;6179;51.748;8.728;2023-09-18T00:29:50;6.60;;;2.97;;
12232;SDS011;6179;51.748;8.728;2023-09-18T00:35:51;4.40;;;2.50;;
12232;SDS011;6179;51.748;8.728;2023-09-18T00:41:52;6.13;;;2.47;;
12232;SDS011;6179;51.748;8.728;2023-09-18T00:47:54;4.97;;;2.20;;
12232;SDS011;6179;51.748;8.728;2023-09-18T00:53:54;6.60;;;2.90;;
12232;SDS011;6179;51.748;8.728;2023-09-18T00:59:55;5.70;;;2.90;;
12232;SDS011;6179;51.748;8.728;2023-09-18T01:05:56;3.80;;;2.70;;
12232;SDS011;6179;51.748;8.728;2023-09-18T01:17:57;5.60;;;2.53;;
12232;SDS011;6179;51.748;8.728;2023-09-18T01:23:58;4.90;;;3.33;;
12232;SDS011;6179;51.748;8.728;2023-09-18T01:29:59;5.50;;;3.17;;
12232;SDS011;6179;51.748;8.728;2023-09-18T01:35:59;6.70;;;2.70;;
12232;SDS011;6179;51.748;8.728;2023-09-18T01:42:02;6.43;;;2.23;;
12232;SDS011;6179;51.748;8.728;2023-09-18T01:48:05;6.67;;;2.70;;
12232;SDS011;6179;51.748;8.728;2023-09-18T01:54:06;6.37;;;2.77;;
12232;SDS011;6179;51.748;8.728;2023-09-18T02:00:07;3.80;;;2.33;;
12232;SDS011;6179;51.748;8.728;2023-09-18T02:06:08;6.63;;;3.10;;
12232;SDS011;6179;51.748;8.728;2023-09-18T02:12:09;8.17;;;2.57;;
12232;SDS011;6179;51.748;8.728;2023-09-18T02:18:17;3.13;;;2.93;;
12232;SDS011;6179;51.748;8.728;2023-09-18T02:24:17;11.23;;;2.07;;
12232;SDS011;6179;51.748;8.728;2023-09-18T02:30:19;5.07;;;1.90;;
12232;SDS011;6179;51.748;8.728;2023-09-18T02:36:20;3.37;;;2.10;;
12232;SDS011;6179;51.748;8.728;2023-09-18T02:42:20;6.30;;;2.13;;
12232;SDS011;6179;51.748;8.728;2023-09-18T02:48:21;9.90;;;1.60;;
12232;SDS011;6179;51.748;8.728;2023-09-18T02:54:22;2.87;;;2.10;;
12232;SDS011;6179;51.748;8.728;2023-09-18T03:00:22;7.00;;;1.83;;
12232;SDS011;6179;51.748;8.728;2023-09-18T03:06:23;16.80;;;3.10;;
12232;SDS011;6179;51.748;8.728;2023-09-18T03:12:24;3.40;;;1.93;;
12232;SDS011;6179;51.748;8.728;2023-09-18T03:18:24;1.97;;;1.87;;
12232;SDS011;6179;51.748;8.728;2023-09-18T03:24:25;1.80;;;1.70;;
12232;SDS011;6179;51.748;8.728;2023-09-18T03:30:25;3.50;;;2.57;;
12232;SDS011;6179;51.748;8.728;2023-09-18T03:36:26;5.60;;;3.00;;
12232;SDS011;6179;51.748;8.728;2023-09-18T03:42:27;1.77;;;1.67;;
12232;SDS011;6179;51.748;8.728;2023-09-18T03:48:28;4.83;;;2.00;;
12232;SDS011;6179;51.748;8.728;2023-09-18T03:54:30;3.60;;;3.23;;
12232;SDS011;6179;51.748;8.728;2023-09-18T04:00:31;2.73;;;2.10;;
12232;SDS011;6179;51.748;8.728;2023-09-18T04:06:50;9.37;;;2.90;;
12232;SDS011;6179;51.748;8.728;2023-09-18T04:12:51;4.97;;;3.00;;
12232;SDS011;6179;51.748;8.728;2023-09-18T04:18:52;6.00;;;1.90;;
12232;SDS011;6179;51.748;8.728;2023-09-18T04:24:52;2.50;;;2.00;;
12232;SDS011;6179;51.748;8.728;2023-09-18T04:30:53;3.17;;;2.93;;
12232;SDS011;6179;51.748;8.728;2023-09-18T04:36:53;2.40;;;1.80;;
12232;SDS011;6179;51.748;8.728;2023-09-18T04:42:54;3.90;;;1.97;;
12232;SDS011;6179;51.748;8.728;2023-09-18T04:48:54;12.30;;;2.57;;
12232;SDS011;6179;51.748;8.728;2023-09-18T04:54:55;2.40;;;1.97;;
12232;SDS011;6179;51.748;8.728;2023-09-18T05:00:57;3.63;;;2.80;;
12232;SDS011;6179;51.748;8.728;2023-09-18T05:06:59;2.73;;;2.40;;
12232;SDS011;6179;51.748;8.728;2023-09-18T05:13:02;8.83;;;1.63;;
12232;SDS011;6179;51.748;8.728;2023-09-18T05:19:03;2.43;;;1.43;;
12232;SDS011;6179;51.748;8.728;2023-09-18T05:25:04;2.07;;;1.90;;
12232;SDS011;6179;51.748;8.728;2023-09-18T05:31:05;5.27;;;2.47;;
12232;SDS011;6179;51.748;8.728;2023-09-18T05:37:06;3.13;;;1.40;;
12232;SDS011;6179;51.748;8.728;2023-09-18T05:43:10;1.80;;;1.50;;
12232;SDS011;6179;51.748;8.728;2023-09-18T05:49:11;8.43;;;4.27;;
12232;SDS011;6179;51.748;8.728;2023-09-18T05:55:13;2.30;;;1.30;;
12232;SDS011;6179;51.748;8.728;2023-09-18T06:01:15;3.07;;;1.67;;
12232;SDS011;6179;51.748;8.728;2023-09-18T06:07:15;7.17;;;2.23;;
12232;SDS011;6179;51.748;8.728;2023-09-18T06:13:19;2.53;;;1.90;;
12232;SDS011;6179;51.748;8.728;2023-09-18T06:19:24;6.00;;;1.63;;
12232;SDS011;6179;51.748;8.728;2023-09-18T06:25:24;2.10;;;1.40;;
12232;SDS011;6179;51.748;8.728;2023-09-18T06:31:25;3.70;;;1.57;;
12232;SDS011;6179;51.748;8.728;2023-09-18T06:37:26;3.97;;;1.60;;
12232;SDS011;6179;51.748;8.728;2023-09-18T06:43:27;4.07;;;2.00;;
12232;SDS011;6179;51.748;8.728;2023-09-18T06:49:27;4.50;;;1.90;;
12232;SDS011;6179;51.748;8.728;2023-09-18T06:55:28;2.10;;;1.23;;
12232;SDS011;6179;51.748;8.728;2023-09-18T07:01:28;3.50;;;1.50;;
12232;SDS011;6179;51.748;8.728;2023-09-18T07:07:31;2.00;;;1.20;;
12232;SDS011;6179;51.748;8.728;2023-09-18T07:13:32;4.03;;;1.60;;
12232;SDS011;6179;51.748;8.728;2023-09-18T07:19:32;3.03;;;1.30;;
12232;SDS011;6179;51.748;8.728;2023-09-18T07:25:33;1.60;;;1.10;;
12232;SDS011;6179;51.748;8.728;2023-09-18T07:31:34;11.03;;;1.50;;
12232;SDS011;6179;51.748;8.728;2023-09-18T07:37:35;2.47;;;1.07;;
12232;SDS011;6179;51.748;8.728;2023-09-18T07:43:36;3.03;;;0.93;;
12232;SDS011;6179;51.748;8.728;2023-09-18T07:49:37;3.10;;;0.67;;
12232;SDS011;6179;51.748;8.728;2023-09-18T07:55:38;1.37;;;0.73;;
12232;SDS011;6179;51.748;8.728;2023-09-18T08:01:38;4.90;;;0.80;;
12232;SDS011;6179;51.748;8.728;2023-09-18T08:07:39;1.70;;;0.90;;
12232;SDS011;6179;51.748;8.728;2023-09-18T08:13:40;3.23;;;0.70;;
12232;SDS011;6179;51.748;8.728;2023-09-18T08:19:41;15.17;;;1.00;;
12232;SDS011;6179;51.748;8.728;2023-09-18T08:25:42;1.03;;;0.80;;
12232;SDS011;6179;51.748;8.728;2023-09-18T08:31:43;0.80;;;0.60;;
12232;SDS011;6179;51.748;8.728;2023-09-18T08:37:44;2.43;;;0.50;;
12232;SDS011;6179;51.748;8.728;2023-09-18T08:43:45;0.70;;;0.50;;
12232;SDS011;6179;51.748;8.728;2023-09-18T08:49:49;1.00;;;0.60;;
12232;SDS011;6179;51.748;8.728;2023-09-18T08:55:52;1.27;;;0.57;;
12232;SDS011;6179;51.748;8.728;2023-09-18T09:01:58;1.70;;;0.70;;
12232;SDS011;6179;51.748;8.728;2023-09-18T09:07:58;1.00;;;0.90;;
12232;SDS011;6179;51.748;8.728;2023-09-18T09:20:13;17.77;;;0.67;;
12232;SDS011;6179;51.748;8.728;2023-09-18T09:26:16;0.93;;;0.50;;
12232;SDS011;6179;51.748;8.728;2023-09-18T09:32:17;2.03;;;0.53;;
12232;SDS011;6179;51.748;8.728;2023-09-18T09:38:19;1.57;;;1.47;;
12232;SDS011;6179;51.748;8.728;2023-09-18T09:44:21;2.50;;;0.70;;
12232;SDS011;6179;51.748;8.728;2023-09-18T09:50:22;10.43;;;0.50;;
12232;SDS011;6179;51.748;8.728;2023-09-18T09:56:44;0.57;;;0.57;;
12232;SDS011;6179;51.748;8.728;2023-09-18T10:02:48;9.83;;;0.67;;
12232;SDS011;6179;51.748;8.728;2023-09-18T10:08:49;4.47;;;0.50;;
12232;SDS011;6179;51.748;8.728;2023-09-18T10:14:50;0.60;;;0.60;;
12232;SDS011;6179;51.748;8.728;2023-09-18T10:21:03;2.30;;;0.60;;
12232;SDS011;6179;51.748;8.728;2023-09-18T10:27:31;1.83;;;0.40;;
12232;SDS011;6179;51.748;8.728;2023-09-18T10:33:33;3.33;;;0.60;;
12232;SDS011;6179;51.748;8.728;2023-09-18T10:39:36;2.93;;;0.70;;
12232;SDS011;6179;51.748;8.728;2023-09-18T10:45:39;1.47;;;0.47;;
12232;SDS011;6179;51.748;8.728;2023-09-18T10:51:40;0.60;;;0.50;;
12232;SDS011;6179;51.748;8.728;2023-09-18T11:04:03;0.60;;;0.60;;
12232;SDS011;6179;51.748;8.728;2023-09-18T11:10:40;0.50;;;0.50;;
12232;SDS011;6179;51.748;8.728;2023-09-18T11:16:34;2.20;;;0.43;;
12232;SDS011;6179;51.748;8.728;2023-09-18T11:22:39;0.70;;;0.50;;
12232;SDS011;6179;51.748;8.728;2023-09-18T11:29:00;0.70;;;0.50;;
12232;SDS011;6179;51.748;8.728;2023-09-18T11:35:08;0.67;;;0.43;;
12232;SDS011;6179;51.748;8.728;2023-09-18T11:41:22;5.30;;;0.50;;
12232;SDS011;6179;51.748;8.728;2023-09-18T11:47:25;0.60;;;0.50;;
12232;SDS011;6179;51.748;8.728;2023-09-18T11:53:27;0.30;;;0.30;;
12232;SDS011;6179;51.748;8.728;2023-09-18T11:59:39;2.37;;;0.60;;
12232;SDS011;6179;51.748;8.728;2023-09-18T12:05:43;2.60;;;0.50;;
12232;SDS011;6179;51.748;8.728;2023-09-18T12:11:44;1.63;;;1.53;;
12232;SDS011;6179;51.748;8.728;2023-09-18T12:17:45;1.60;;;0.40;;
12232;SDS011;6179;51.748;8.728;2023-09-18T12:23:46;0.80;;;0.40;;
12232;SDS011;6179;51.748;8.728;2023-09-18T12:29:47;1.17;;;0.40;;
12232;SDS011;6179;51.748;8.728;2023-09-18T12:35:47;3.70;;;0.50;;
12232;SDS011;6179;51.748;8.728;2023-09-18T12:41:49;3.00;;;0.70;;
12232;SDS011;6179;51.748;8.728;2023-09-18T12:47:50;0.80;;;0.50;;
12232;SDS011;6179;51.748;8.728;2023-09-18T12:54:01;0.40;;;0.40;;
12232;SDS011;6179;51.748;8.728;2023-09-18T13:00:09;0.60;;;0.50;;
12232;SDS011;6179;51.748;8.728;2023-09-18T13:06:15;0.50;;;0.47;;
12232;SDS011;6179;51.748;8.728;2023-09-18T13:12:19;0.97;;;0.53;;
12232;SDS011;6179;51.748;8.728;2023-09-18T13:18:20;4.73;;;0.50;;
12232;SDS011;6179;51.748;8.728;2023-09-18T13:24:25;2.50;;;0.40;;
12232;SDS011;6179;51.748;8.728;2023-09-18T13:30:29;0.60;;;0.50;;
12232;SDS011;6179;51.748;8.728;2023-09-18T13:36:31;1.73;;;0.50;;
12232;SDS011;6179;51.748;8.728;2023-09-18T13:42:33;7.70;;;0.80;;
12232;SDS011;6179;51.748;8.728;2023-09-18T13:48:37;3.43;;;0.50;;
12232;SDS011;6179;51.748;8.728;2023-09-18T13:54:38;0.60;;;0.40;;
12232;SDS011;6179;51.748;8.728;2023-09-18T14:00:40;0.60;;;0.40;;
12232;SDS011;6179;51.748;8.728;2023-09-18T14:06:43;3.30;;;1.03;;
12232;SDS011;6179;51.748;8.728;2023-09-18T14:12:44;0.40;;;0.40;;
12232;SDS011;6179;51.748;8.728;2023-09-18T14:18:45;0.70;;;0.60;;
12232;SDS011;6179;51.748;8.728;2023-09-18T14:24:46;0.40;;;0.30;;
12232;SDS011;6179;51.748;8.728;2023-09-18T14:30:47;2.17;;;0.50;;
12232;SDS011;6179;51.748;8.728;2023-09-18T14:36:48;0.63;;;0.40;;
12232;SDS011;6179;51.748;8.728;2023-09-18T14:42:49;0.87;;;0.67;;
12232;SDS011;6179;51.748;8.728;2023-09-18T14:48:49;0.30;;;0.30;;
12232;SDS011;6179;51.748;8.728;2023-09-18T14:54:50;3.07;;;0.77;;
12232;SDS011;6179;51.748;8.728;2023-09-18T15:00:54;0.50;;;0.40;;
12232;SDS011;6179;51.748;8.728;2023-09-18T15:06:54;1.13;;;0.57;;
12232;SDS011;6179;51.748;8.728;2023-09-18T15:12:55;1.17;;;0.50;;
12232;SDS011;6179;51.748;8.728;2023-09-18T15:18:56;0.73;;;0.43;;
12232;SDS011;6179;51.748;8.728;2023-09-18T15:25:00;0.50;;;0.50;;
12232;SDS011;6179;51.748;8.728;2023-09-18T15:31:01;0.40;;;0.40;;
12232;SDS011;6179;51.748;8.728;2023-09-18T15:37:02;0.90;;;0.50;;
12232;SDS011;6179;51.748;8.728;2023-09-18T15:43:04;0.50;;;0.43;;
12232;SDS011;6179;51.748;8.728;2023-09-18T15:49:05;0.57;;;0.57;;
12232;SDS011;6179;51.748;8.728;2023-09-18T15:55:06;0.83;;;0.50;;
12232;SDS011;6179;51.748;8.728;2023-09-18T16:01:07;3.00;;;2.80;;
12232;SDS011;6179;51.748;8.728;2023-09-18T16:07:10;0.67;;;0.47;;
12232;SDS011;6179;51.748;8.728;2023-09-18T16:13:13;2.00;;;0.50;;
12232;SDS011;6179;51.748;8.728;2023-09-18T16:19:14;0.93;;;0.60;;
12232;SDS011;6179;51.748;8.728;2023-09-18T16:25:14;2.63;;;0.40;;
12232;SDS011;6179;51.748;8.728;2023-09-18T16:31:15;4.10;;;0.57;;
12232;SDS011;6179;51.748;8.728;2023-09-18T16:37:16;7.00;;;0.60;;
12232;SDS011;6179;51.748;8.728;2023-09-18T16:43:16;1.43;;;1.33;;
12232;SDS011;6179;51.748;8.728;2023-09-18T16:49:19;0.40;;;0.40;;
12232;SDS011;6179;51.748;8.728;2023-09-18T16:55:22;0.93;;;0.50;;
12232;SDS011;6179;51.748;8.728;2023-09-18T17:01:22;0.50;;;0.47;;
12232;SDS011;6179;51.748;8.728;2023-09-18T17:07:23;0.50;;;0.40;;
12232;SDS011;6179;51.748;8.728;2023-09-18T17:13:24;0.60;;;0.40;;
12232;SDS011;6179;51.748;8.728;2023-09-18T17:19:24;0.40;;;0.40;;
12232;SDS011;6179;51.748;8.728;2023-09-18T17:25:25;0.50;;;0.50;;
12232;SDS011;6179;51.748;8.728;2023-09-18T17:31:26;1.03;;;0.63;;
12232;SDS011;6179;51.748;8.728;2023-09-18T17:37:26;0.50;;;0.40;;
12232;SDS011;6179;51.748;8.728;2023-09-18T17:43:27;0.30;;;0.30;;
12232;SDS011;6179;51.748;8.728;2023-09-18T17:49:27;0.70;;;0.40;;
12232;SDS011;6179;51.748;8.728;2023-09-18T17:55:28;4.43;;;0.60;;
12232;SDS011;6179;51.748;8.728;2023-09-18T18:01:29;0.53;;;0.53;;
12232;SDS011;6179;51.748;8.728;2023-09-18T18:07:29;2.10;;;0.50;;
12232;SDS011;6179;51.748;8.728;2023-09-18T18:13:30;1.03;;;0.93;;
12232;SDS011;6179;51.748;8.728;2023-09-18T18:19:32;2.37;;;0.67;;
12232;SDS011;6179;51.748;8.728;2023-09-18T18:25:33;0.50;;;0.50;;
12232;SDS011;6179;51.748;8.728;2023-09-18T18:31:35;0.60;;;0.60;;
12232;SDS011;6179;51.748;8.728;2023-09-18T18:37:36;0.83;;;0.70;;
12232;SDS011;6179;51.748;8.728;2023-09-18T18:43:36;3.20;;;1.10;;
12232;SDS011;6179;51.748;8.728;2023-09-18T18:49:37;1.47;;;0.80;;
12232;SDS011;6179;51.748;8.728;2023-09-18T18:55:38;4.40;;;0.67;;
12232;SDS011;6179;51.748;8.728;2023-09-18T19:01:38;2.50;;;0.90;;
12232;SDS011;6179;51.748;8.728;2023-09-18T19:07:39;1.30;;;0.93;;
12232;SDS011;6179;51.748;8.728;2023-09-18T19:13:40;0.63;;;0.60;;
12232;SDS011;6179;51.748;8.728;2023-09-18T19:19:42;1.87;;;0.87;;
12232;SDS011;6179;51.748;8.728;2023-09-18T19:25:47;2.77;;;1.73;;
12232;SDS011;6179;51.748;8.728;2023-09-18T19:31:49;3.20;;;0.80;;
12232;SDS011;6179;51.748;8.728;2023-09-18T19:37:49;0.90;;;0.53;;
12232;SDS011;6179;51.748;8.728;2023-09-18T19:43:50;0.70;;;0.70;;
12232;SDS011;6179;51.748;8.728;2023-09-18T19:49:51;1.70;;;1.00;;
12232;SDS011;6179;51.748;8.728;2023-09-18T19:55:51;1.67;;;0.97;;
12232;SDS011;6179;51.748;8.728;2023-09-18T20:01:52;0.50;;;0.50;;
12232;SDS011;6179;51.748;8.728;2023-09-18T20:07:53;0.87;;;0.50;;
12232;SDS011;6179;51.748;8.728;2023-09-18T20:13:54;1.47;;;0.40;;
12232;SDS011;6179;51.748;8.728;2023-09-18T20:19:54;6.63;;;0.73;;
12232;SDS011;6179;51.748;8.728;2023-09-18T20:25:55;0.97;;;0.50;;
12232;SDS011;6179;51.748;8.728;2023-09-18T20:31:56;0.43;;;0.40;;
12232;SDS011;6179;51.748;8.728;2023-09-18T20:37:58;0.90;;;0.40;;
12232;SDS011;6179;51.748;8.728;2023-09-18T20:43:58;0.40;;;0.40;;
12232;SDS011;6179;51.748;8.728;2023-09-18T20:50:02;0.40;;;0.40;;
12232;SDS011;6179;51.748;8.728;2023-09-18T20:56:05;4.40;;;0.60;;
12232;SDS011;6179;51.748;8.728;2023-09-18T21:02:05;0.50;;;0.40;;
12232;SDS011;6179;51.748;8.728;2023-09-18T21:08:08;0.40;;;0.40;;
12232;SDS011;6179;51.748;8.728;2023-09-18T21:14:09;2.30;;;0.60;;
12232;SDS011;6179;51.748;8.728;2023-09-18T21:20:10;2.57;;;0.77;;
12232;SDS011;6179;51.748;8.728;2023-09-18T21:26:10;0.40;;;0.40;;
12232;SDS011;6179;51.748;8.728;2023-09-18T21:32:11;0.60;;;0.40;;
12232;SDS011;6179;51.748;8.728;2023-09-18T21:38:14;2.27;;;0.30;;
12232;SDS011;6179;51.748;8.728;2023-09-18T21:44:15;0.50;;;0.40;;
12232;SDS011;6179;51.748;8.728;2023-09-18T21:50:21;0.73;;;0.40;;
12232;SDS011;6179;51.748;8.728;2023-09-18T21:56:22;3.13;;;0.40;;
12232;SDS011;6179;51.748;8.728;2023-09-18T22:02:23;0.40;;;0.40;;
12232;SDS011;6179;51.748;8.728;2023-09-18T22:08:23;4.53;;;0.80;;
12232;SDS011;6179;51.748;8.728;2023-09-18T22:14:24;0.40;;;0.40;;
12232;SDS011;6179;51.748;8.728;2023-09-18T22:20:25;0.40;;;0.33;;
12232;SDS011;6179;51.748;8.728;2023-09-18T22:26:25;1.07;;;0.53;;
12232;SDS011;6179;51.748;8.728;2023-09-18T22:32:26;0.63;;;0.60;;
12232;SDS011;6179;51.748;8.728;2023-09-18T22:38:35;2.63;;;0.50;;
12232;SDS011;6179;51.748;8.728;2023-09-18T22:57:56;2.30;;;0.87;;
12232;SDS011;6179;51.748;8.728;2023-09-18T23:03:58;5.93;;;1.50;;
12232;SDS011;6179;51.748;8.728;2023-09-18T23:09:59;2.13;;;0.90;;
12232;SDS011;6179;51.748;8.728;2023-09-18T23:16:00;5.30;;;1.20;;
12232;SDS011;6179;51.748;8.728;2023-09-18T23:22:04;0.93;;;0.70;;
12232;SDS011;6179;51.748;8.728;2023-09-18T23:28:05;4.70;;;0.80;;
12232;SDS011;6179;51.748;8.728;2023-09-18T23:34:07;4.50;;;1.17;;
12232;SDS011;6179;51.748;8.728;2023-09-18T23:40:09;2.50;;;0.70;;
12232;SDS011;6179;51.748;8.728;2023-09-18T23:46:12;2.10;;;1.67;;
12232;SDS011;6179;51.748;8.728;2023-09-18T23:52:15;1.70;;;0.90;;
12232;SDS011;6179;51.748;8.728;2023-09-18T23:58:16;4.63;;;0.90;;
